sensor_id;sensor_type;location;lat;lon;timestamp;pressure;altitude;pressure_sealevel;temperature;humidity
73910;BME280;62245;48.070;7.874;2022-09-03T00:01:43;98630.25;;;19.38;68.46
73910;BME280;62245;48.070;7.874;2022-09-03T00:04:31;98623.25;;;19.32;68.54
73910;BME280;62245;48.070;7.874;2022-09-03T00:07:04;98628.16;;;19.25;69.17
73910;BME280;62245;48.070;7.874;2022-09-03T00:09:40;98630.34;;;19.13;69.58
73910;BME280;62245;48.070;7.874;2022-09-03T00:12:12;98640.06;;;19.14;69.87
73910;BME280;62245;48.070;7.874;2022-09-03T00:14:43;98634.41;;;19.05;70.27
73910;BME280;62245;48.070;7.874;2022-09-03T00:17:15;98638.72;;;19.11;70.01
73910;BME280;62245;48.070;7.874;2022-09-03T00:20:12;98636.31;;;19.05;70.45
73910;BME280;62245;48.070;7.874;2022-09-03T00:22:42;98622.28;;;18.98;70.83
73910;BME280;62245;48.070;7.874;2022-09-03T00:25:23;98611.72;;;19.01;70.40
73910;BME280;62245;48.070;7.874;2022-09-03T00:27:52;98620.09;;;19.05;70.78
73910;BME280;62245;48.070;7.874;2022-09-03T00:30:19;98633.06;;;19.03;70.72
73910;BME280;62245;48.070;7.874;2022-09-03T00:32:58;98610.09;;;19.05;70.80
73910;BME280;62245;48.070;7.874;2022-09-03T00:35:37;98623.31;;;19.12;70.63
73910;BME280;62245;48.070;7.874;2022-09-03T00:38:05;98620.03;;;19.20;70.47
73910;BME280;62245;48.070;7.874;2022-09-03T00:41:04;98618.72;;;19.17;70.21
73910;BME280;62245;48.070;7.874;2022-09-03T00:46:35;98622.19;;;19.28;70.20
73910;BME280;62245;48.070;7.874;2022-09-03T00:57:34;98615.66;;;19.44;70.01
73910;BME280;62245;48.070;7.874;2022-09-03T01:00:14;98609.16;;;19.50;69.44
73910;BME280;62245;48.070;7.874;2022-09-03T01:02:50;98611.03;;;19.50;69.42
73910;BME280;62245;48.070;7.874;2022-09-03T01:08:17;98598.00;;;19.57;68.88
73910;BME280;62245;48.070;7.874;2022-09-03T01:10:56;98601.56;;;19.52;69.01
73910;BME280;62245;48.070;7.874;2022-09-03T01:16:26;98610.72;;;19.56;68.27
73910;BME280;62245;48.070;7.874;2022-09-03T01:21:54;98606.41;;;19.61;67.49
73910;BME280;62245;48.070;7.874;2022-09-03T01:27:11;98598.56;;;19.59;67.00
73910;BME280;62245;48.070;7.874;2022-09-03T01:30:07;98601.25;;;19.59;66.58
73910;BME280;62245;48.070;7.874;2022-09-03T01:35:26;98591.56;;;19.53;66.50
73910;BME280;62245;48.070;7.874;2022-09-03T01:38:22;98598.59;;;19.54;66.76
73910;BME280;62245;48.070;7.874;2022-09-03T01:44:21;98617.53;;;19.54;67.11
73910;BME280;62245;48.070;7.874;2022-09-03T01:46:56;98616.72;;;19.43;67.20
73910;BME280;62245;48.070;7.874;2022-09-03T01:49:37;98609.75;;;19.22;66.92
73910;BME280;62245;48.070;7.874;2022-09-03T01:52:14;98604.59;;;19.36;66.84
73910;BME280;62245;48.070;7.874;2022-09-03T02:00:20;98600.50;;;19.38;65.39
73910;BME280;62245;48.070;7.874;2022-09-03T02:02:48;98601.56;;;19.47;65.12
73910;BME280;62245;48.070;7.874;2022-09-03T02:05:32;98594.50;;;19.46;65.11
73910;BME280;62245;48.070;7.874;2022-09-03T02:08:04;98598.06;;;19.52;64.73
73910;BME280;62245;48.070;7.874;2022-09-03T02:10:46;98605.09;;;19.53;64.42
73910;BME280;62245;48.070;7.874;2022-09-03T02:13:15;98612.66;;;19.51;64.28
73910;BME280;62245;48.070;7.874;2022-09-03T02:15:44;98616.16;;;19.46;64.03
73910;BME280;62245;48.070;7.874;2022-09-03T02:18:23;98624.56;;;19.45;64.10
73910;BME280;62245;48.070;7.874;2022-09-03T02:20:53;98624.84;;;19.43;64.25
73910;BME280;62245;48.070;7.874;2022-09-03T02:23:20;98637.28;;;19.44;64.56
73910;BME280;62245;48.070;7.874;2022-09-03T02:25:52;98629.47;;;19.33;64.34
73910;BME280;62245;48.070;7.874;2022-09-03T02:28:19;98635.72;;;19.23;64.84
73910;BME280;62245;48.070;7.874;2022-09-03T02:30:45;98633.25;;;19.32;64.70
73910;BME280;62245;48.070;7.874;2022-09-03T02:33:11;98634.63;;;19.34;64.85
73910;BME280;62245;48.070;7.874;2022-09-03T02:35:38;98633.25;;;19.32;65.27
73910;BME280;62245;48.070;7.874;2022-09-03T02:38:19;98621.09;;;19.29;65.25
73910;BME280;62245;48.070;7.874;2022-09-03T02:40:45;98623.56;;;19.26;65.35
73910;BME280;62245;48.070;7.874;2022-09-03T02:43:15;98630.81;;;19.30;65.44
73910;BME280;62245;48.070;7.874;2022-09-03T02:45:46;98631.09;;;19.34;65.38
73910;BME280;62245;48.070;7.874;2022-09-03T02:48:15;98645.44;;;19.34;65.13
73910;BME280;62245;48.070;7.874;2022-09-03T02:50:42;98642.19;;;19.32;65.25
73910;BME280;62245;48.070;7.874;2022-09-03T02:53:08;98636.81;;;19.27;65.41
73910;BME280;62245;48.070;7.874;2022-09-03T02:55:34;98636.81;;;19.22;66.09
73910;BME280;62245;48.070;7.874;2022-09-03T02:57:59;98642.72;;;19.29;65.57
73910;BME280;62245;48.070;7.874;2022-09-03T03:00:25;98637.66;;;19.07;66.66
73910;BME280;62245;48.070;7.874;2022-09-03T03:02:54;98634.69;;;19.09;66.23
73910;BME280;62245;48.070;7.874;2022-09-03T03:05:25;98637.91;;;19.16;65.90
73910;BME280;62245;48.070;7.874;2022-09-03T03:07:52;98626.06;;;18.97;67.22
73910;BME280;62245;48.070;7.874;2022-09-03T03:10:17;98629.25;;;19.14;66.62
73910;BME280;62245;48.070;7.874;2022-09-03T03:12:42;98643.06;;;19.17;66.37
73910;BME280;62245;48.070;7.874;2022-09-03T03:15:08;98639.25;;;19.18;66.27
73910;BME280;62245;48.070;7.874;2022-09-03T03:17:33;98629.00;;;19.15;65.89
73910;BME280;62245;48.070;7.874;2022-09-03T03:19:58;98628.69;;;19.22;66.12
73910;BME280;62245;48.070;7.874;2022-09-03T03:22:24;98632.75;;;19.25;66.18
73910;BME280;62245;48.070;7.874;2022-09-03T03:24:49;98633.81;;;19.29;66.00
73910;BME280;62245;48.070;7.874;2022-09-03T03:27:15;98632.19;;;19.33;65.85
73910;BME280;62245;48.070;7.874;2022-09-03T03:29:40;98627.56;;;19.33;65.51
73910;BME280;62245;48.070;7.874;2022-09-03T03:32:05;98630.81;;;19.30;65.76
73910;BME280;62245;48.070;7.874;2022-09-03T03:34:30;98626.25;;;19.26;65.53
73910;BME280;62245;48.070;7.874;2022-09-03T03:36:56;98626.50;;;19.34;65.43
73910;BME280;62245;48.070;7.874;2022-09-03T03:39:21;98631.34;;;19.37;64.85
73910;BME280;62245;48.070;7.874;2022-09-03T03:41:46;98627.84;;;19.32;64.64
73910;BME280;62245;48.070;7.874;2022-09-03T03:44:12;98634.06;;;19.32;64.91
73910;BME280;62245;48.070;7.874;2022-09-03T03:46:39;98623.25;;;19.32;64.87
73910;BME280;62245;48.070;7.874;2022-09-03T03:49:08;98628.13;;;19.35;65.01
73910;BME280;62245;48.070;7.874;2022-09-03T03:51:35;98631.91;;;19.34;65.43
73910;BME280;62245;48.070;7.874;2022-09-03T03:54:01;98626.81;;;19.28;65.29
73910;BME280;62245;48.070;7.874;2022-09-03T03:56:26;98629.47;;;19.33;65.20
73910;BME280;62245;48.070;7.874;2022-09-03T03:58:52;98627.56;;;19.33;65.04
73910;BME280;62245;48.070;7.874;2022-09-03T04:01:23;98624.06;;;19.33;64.93
73910;BME280;62245;48.070;7.874;2022-09-03T04:03:49;98625.16;;;19.32;65.02
73910;BME280;62245;48.070;7.874;2022-09-03T04:06:16;98624.38;;;19.26;65.32
73910;BME280;62245;48.070;7.874;2022-09-03T04:08:44;98631.38;;;19.32;64.91
73910;BME280;62245;48.070;7.874;2022-09-03T04:11:11;98629.19;;;19.29;64.95
73910;BME280;62245;48.070;7.874;2022-09-03T04:13:39;98622.75;;;19.25;65.21
73910;BME280;62245;48.070;7.874;2022-09-03T04:16:10;98617.59;;;19.23;65.11
73910;BME280;62245;48.070;7.874;2022-09-03T04:18:36;98613.56;;;19.16;65.41
73910;BME280;62245;48.070;7.874;2022-09-03T04:21:07;98624.09;;;19.22;65.14
73910;BME280;62245;48.070;7.874;2022-09-03T04:23:35;98620.31;;;19.23;65.08
73910;BME280;62245;48.070;7.874;2022-09-03T04:26:01;98610.03;;;19.20;65.04
73910;BME280;62245;48.070;7.874;2022-09-03T04:28:27;98614.09;;;19.28;64.52
73910;BME280;62245;48.070;7.874;2022-09-03T04:30:53;98614.59;;;19.30;64.65
73910;BME280;62245;48.070;7.874;2022-09-03T04:33:18;98611.13;;;19.25;64.55
73910;BME280;62245;48.070;7.874;2022-09-03T04:35:44;98620.31;;;19.23;64.61
73910;BME280;62245;48.070;7.874;2022-09-03T04:38:09;98610.34;;;19.19;64.57
73910;BME280;62245;48.070;7.874;2022-09-03T04:40:35;98612.22;;;19.18;64.24
73910;BME280;62245;48.070;7.874;2022-09-03T04:43:01;98616.81;;;19.18;64.25
73910;BME280;62245;48.070;7.874;2022-09-03T04:45:26;98613.59;;;19.11;64.34
73910;BME280;62245;48.070;7.874;2022-09-03T04:48:03;98615.75;;;19.14;64.14
73910;BME280;62245;48.070;7.874;2022-09-03T04:50:31;98614.63;;;19.20;64.44
73910;BME280;62245;48.070;7.874;2022-09-03T04:53:01;98617.38;;;19.10;64.47
73910;BME280;62245;48.070;7.874;2022-09-03T04:55:27;98620.59;;;19.12;64.94
73910;BME280;62245;48.070;7.874;2022-09-03T04:57:52;98618.47;;;19.04;64.75
73910;BME280;62245;48.070;7.874;2022-09-03T05:00:18;98617.13;;;19.06;64.66
73910;BME280;62245;48.070;7.874;2022-09-03T05:02:44;98616.31;;;19.11;65.38
73910;BME280;62245;48.070;7.874;2022-09-03T05:05:14;98610.88;;;19.16;65.57
73910;BME280;62245;48.070;7.874;2022-09-03T05:07:39;98613.03;;;19.19;65.50
73910;BME280;62245;48.070;7.874;2022-09-03T05:10:06;98613.53;;;19.21;65.45
73910;BME280;62245;48.070;7.874;2022-09-03T05:12:32;98614.63;;;19.20;65.75
73910;BME280;62245;48.070;7.874;2022-09-03T05:14:58;98613.84;;;19.19;65.93
73910;BME280;62245;48.070;7.874;2022-09-03T05:17:24;98603.28;;;19.13;66.03
73910;BME280;62245;48.070;7.874;2022-09-03T05:19:49;98624.38;;;19.26;65.68
73910;BME280;62245;48.070;7.874;2022-09-03T05:22:14;98625.44;;;19.25;65.58
73910;BME280;62245;48.070;7.874;2022-09-03T05:24:45;98624.63;;;19.25;65.89
73910;BME280;62245;48.070;7.874;2022-09-03T05:27:11;98609.22;;;19.20;66.13
73910;BME280;62245;48.070;7.874;2022-09-03T05:29:36;98626.81;;;19.17;66.56
73910;BME280;62245;48.070;7.874;2022-09-03T05:32:01;98623.03;;;19.13;66.25
73910;BME280;62245;48.070;7.874;2022-09-03T05:34:28;98623.03;;;19.18;66.33
73910;BME280;62245;48.070;7.874;2022-09-03T05:36:53;98623.84;;;19.14;66.22
73910;BME280;62245;48.070;7.874;2022-09-03T05:39:22;98613.31;;;19.12;65.83
73910;BME280;62245;48.070;7.874;2022-09-03T05:41:48;98621.16;;;19.14;65.87
73910;BME280;62245;48.070;7.874;2022-09-03T05:44:15;98627.13;;;19.06;66.11
73910;BME280;62245;48.070;7.874;2022-09-03T05:46:40;98626.03;;;19.07;65.40
73910;BME280;62245;48.070;7.874;2022-09-03T05:49:06;98624.41;;;19.11;66.24
73910;BME280;62245;48.070;7.874;2022-09-03T05:51:33;98635.50;;;19.09;66.06
73910;BME280;62245;48.070;7.874;2022-09-03T05:53:59;98634.13;;;19.12;66.30
73910;BME280;62245;48.070;7.874;2022-09-03T05:56:26;98630.06;;;19.19;66.61
73910;BME280;62245;48.070;7.874;2022-09-03T05:58:53;98628.19;;;19.15;66.74
73910;BME280;62245;48.070;7.874;2022-09-03T06:03:52;98625.47;;;19.15;66.15
73910;BME280;62245;48.070;7.874;2022-09-03T06:06:19;98629.00;;;19.15;67.05
73910;BME280;62245;48.070;7.874;2022-09-03T06:08:49;98631.41;;;19.17;67.15
73910;BME280;62245;48.070;7.874;2022-09-03T06:11:15;98630.84;;;19.25;66.69
73910;BME280;62245;48.070;7.874;2022-09-03T06:13:41;98632.19;;;19.33;66.81
73910;BME280;62245;48.070;7.874;2022-09-03T06:16:06;98628.13;;;19.30;66.37
73910;BME280;62245;48.070;7.874;2022-09-03T06:18:32;98631.91;;;19.29;66.78
73910;BME280;62245;48.070;7.874;2022-09-03T06:21:00;98631.09;;;19.29;66.83
73910;BME280;62245;48.070;7.874;2022-09-03T06:23:26;98631.34;;;19.37;67.20
73910;BME280;62245;48.070;7.874;2022-09-03T06:26:20;98634.06;;;19.32;67.42
73910;BME280;62245;48.070;7.874;2022-09-03T06:28:45;98632.41;;;19.41;66.69
73910;BME280;62245;48.070;7.874;2022-09-03T06:31:14;98629.69;;;19.46;67.23
73910;BME280;62245;48.070;7.874;2022-09-03T06:33:40;98627.28;;;19.50;67.45
73910;BME280;62245;48.070;7.874;2022-09-03T06:36:08;98618.06;;;19.51;67.87
73910;BME280;62245;48.070;7.874;2022-09-03T06:38:36;98619.94;;;19.61;67.84
73910;BME280;62245;48.070;7.874;2022-09-03T06:41:07;98632.34;;;19.72;67.82
73910;BME280;62245;48.070;7.874;2022-09-03T06:43:35;98637.16;;;19.75;67.90
73910;BME280;62245;48.070;7.874;2022-09-03T06:46:03;98644.16;;;19.81;67.15
73910;BME280;62245;48.070;7.874;2022-09-03T06:48:31;98644.69;;;19.83;67.05
73910;BME280;62245;48.070;7.874;2022-09-03T06:51:02;98653.91;;;19.87;66.89
73910;BME280;62245;48.070;7.874;2022-09-03T06:53:29;98643.88;;;19.87;66.36
73910;BME280;62245;48.070;7.874;2022-09-03T06:56:00;98649.81;;;19.89;65.70
73910;BME280;62245;48.070;7.874;2022-09-03T06:58:33;98643.88;;;19.87;65.50
73910;BME280;62245;48.070;7.874;2022-09-03T07:01:03;98651.56;;;19.70;68.26
73910;BME280;62245;48.070;7.874;2022-09-03T07:03:30;98644.53;;;19.64;69.03
73910;BME280;62245;48.070;7.874;2022-09-03T07:06:00;98642.66;;;19.59;68.81
73910;BME280;62245;48.070;7.874;2022-09-03T07:08:25;98645.81;;;19.77;68.61
73910;BME280;62245;48.070;7.874;2022-09-03T07:10:51;98655.25;;;19.84;69.14
73910;BME280;62245;48.070;7.874;2022-09-03T07:13:16;98647.94;;;19.85;68.69
73910;BME280;62245;48.070;7.874;2022-09-03T07:15:43;98640.44;;;19.72;68.42
73910;BME280;62245;48.070;7.874;2022-09-03T07:18:08;98637.66;;;19.82;68.23
73910;BME280;62245;48.070;7.874;2022-09-03T07:20:34;98642.50;;;19.90;68.01
73910;BME280;62245;48.070;7.874;2022-09-03T07:23:00;98639.50;;;19.91;67.73
73910;BME280;62245;48.070;7.874;2022-09-03T07:25:25;98634.81;;;20.07;67.47
73910;BME280;62245;48.070;7.874;2022-09-03T07:27:51;98622.63;;;20.10;66.53
73910;BME280;62245;48.070;7.874;2022-09-03T07:30:17;98618.28;;;20.09;66.40
73910;BME280;62245;48.070;7.874;2022-09-03T07:32:45;98635.75;;;20.31;66.90
73910;BME280;62245;48.070;7.874;2022-09-03T07:35:13;98634.03;;;20.46;66.54
73910;BME280;62245;48.070;7.874;2022-09-03T07:37:42;98635.13;;;20.45;65.84
73910;BME280;62245;48.070;7.874;2022-09-03T07:40:08;98636.38;;;20.57;65.29
73910;BME280;62245;48.070;7.874;2022-09-03T07:42:35;98640.84;;;20.72;65.16
73910;BME280;62245;48.070;7.874;2022-09-03T07:45:01;98645.09;;;20.83;64.92
73910;BME280;62245;48.070;7.874;2022-09-03T07:47:29;98645.03;;;20.88;65.09
73910;BME280;62245;48.070;7.874;2022-09-03T07:49:55;98642.78;;;20.95;64.57
73910;BME280;62245;48.070;7.874;2022-09-03T07:52:20;98636.47;;;21.05;64.24
73910;BME280;62245;48.070;7.874;2022-09-03T07:54:46;98635.56;;;21.15;63.59
73910;BME280;62245;48.070;7.874;2022-09-03T07:57:11;98644.47;;;21.20;63.88
73910;BME280;62245;48.070;7.874;2022-09-03T07:59:37;98638.66;;;21.32;62.25
73910;BME280;62245;48.070;7.874;2022-09-03T08:02:02;98649.25;;;21.28;61.94
73910;BME280;62245;48.070;7.874;2022-09-03T08:04:30;98651.47;;;21.26;60.71
73910;BME280;62245;48.070;7.874;2022-09-03T08:06:57;98650.56;;;21.36;61.13
73910;BME280;62245;48.070;7.874;2022-09-03T08:09:23;98645.88;;;21.41;61.17
73910;BME280;62245;48.070;7.874;2022-09-03T08:11:49;98650.09;;;21.53;60.37
73910;BME280;62245;48.070;7.874;2022-09-03T08:14:14;98661.03;;;21.66;60.64
73910;BME280;62245;48.070;7.874;2022-09-03T08:16:43;98667.44;;;21.75;60.81
73910;BME280;62245;48.070;7.874;2022-09-03T08:19:11;98675.50;;;21.80;59.80
73910;BME280;62245;48.070;7.874;2022-09-03T08:21:37;98674.38;;;21.87;59.92
73910;BME280;62245;48.070;7.874;2022-09-03T08:24:06;98690.56;;;21.92;59.98
73910;BME280;62245;48.070;7.874;2022-09-03T08:26:33;98690.50;;;21.78;60.40
73910;BME280;62245;48.070;7.874;2022-09-03T08:28:59;98692.91;;;21.79;61.14
73910;BME280;62245;48.070;7.874;2022-09-03T08:31:25;98685.88;;;21.78;60.96
73910;BME280;62245;48.070;7.874;2022-09-03T08:33:53;98694.75;;;21.84;61.52
73910;BME280;62245;48.070;7.874;2022-09-03T08:36:21;98708.97;;;21.76;61.63
73910;BME280;62245;48.070;7.874;2022-09-03T08:38:47;98708.16;;;21.75;61.68
73910;BME280;62245;48.070;7.874;2022-09-03T08:41:26;98699.56;;;21.68;61.39
73910;BME280;62245;48.070;7.874;2022-09-03T08:49:32;98713.53;;;21.57;63.65
73910;BME280;62245;48.070;7.874;2022-09-03T08:52:02;98709.19;;;21.56;63.73
73910;BME280;62245;48.070;7.874;2022-09-03T08:54:31;98717.63;;;21.54;63.80
73910;BME280;62245;48.070;7.874;2022-09-03T08:57:00;98703.50;;;21.57;63.72
73910;BME280;62245;48.070;7.874;2022-09-03T08:59:27;98698.06;;;21.57;63.64
73910;BME280;62245;48.070;7.874;2022-09-03T09:02:34;98698.59;;;21.59;62.47
73910;BME280;62245;48.070;7.874;2022-09-03T09:05:11;98698.13;;;21.52;61.89
73910;BME280;62245;48.070;7.874;2022-09-03T09:07:52;98707.31;;;21.56;62.42
73910;BME280;62245;48.070;7.874;2022-09-03T09:10:43;98712.56;;;21.48;61.62
73910;BME280;62245;48.070;7.874;2022-09-03T09:13:15;98710.13;;;21.46;62.60
73910;BME280;62245;48.070;7.874;2022-09-03T09:16:05;98736.16;;;21.47;62.62
73910;BME280;62245;48.070;7.874;2022-09-03T09:19:04;98737.03;;;21.42;63.01
73910;BME280;62245;48.070;7.874;2022-09-03T09:21:39;98742.75;;;21.41;63.42
73910;BME280;62245;48.070;7.874;2022-09-03T09:24:18;98743.28;;;21.43;63.44
73910;BME280;62245;48.070;7.874;2022-09-03T09:26:46;98744.38;;;21.42;63.71
73910;BME280;62245;48.070;7.874;2022-09-03T09:29:12;98735.19;;;21.38;64.00
73910;BME280;62245;48.070;7.874;2022-09-03T09:31:39;98749.81;;;21.42;64.14
73910;BME280;62245;48.070;7.874;2022-09-03T09:34:06;98749.28;;;21.40;64.24
73910;BME280;62245;48.070;7.874;2022-09-03T09:36:41;98754.44;;;21.36;63.79
73910;BME280;62245;48.070;7.874;2022-09-03T09:39:10;98753.09;;;21.39;64.08
73910;BME280;62245;48.070;7.874;2022-09-03T09:41:35;98764.28;;;21.32;63.64
73910;BME280;62245;48.070;7.874;2022-09-03T09:44:02;98756.19;;;21.27;64.39
73910;BME280;62245;48.070;7.874;2022-09-03T09:46:34;98772.22;;;21.24;63.67
73910;BME280;62245;48.070;7.874;2022-09-03T09:49:00;98771.72;;;21.17;64.12
73910;BME280;62245;48.070;7.874;2022-09-03T09:51:30;98786.41;;;21.10;64.28
73910;BME280;62245;48.070;7.874;2022-09-03T09:54:16;98804.69;;;20.95;66.65
73910;BME280;62245;48.070;7.874;2022-09-03T09:56:57;98808.00;;;20.43;67.31
73910;BME280;62245;48.070;7.874;2022-09-03T09:59:23;98805.75;;;19.95;68.05
73910;BME280;62245;48.070;7.874;2022-09-03T10:01:48;98830.38;;;19.94;70.67
73910;BME280;62245;48.070;7.874;2022-09-03T10:06:45;98839.69;;;19.52;73.46
73910;BME280;62245;48.070;7.874;2022-09-03T10:09:23;98834.25;;;19.32;73.86
73910;BME280;62245;48.070;7.874;2022-09-03T10:12:24;98851.28;;;19.17;74.71
73910;BME280;62245;48.070;7.874;2022-09-03T10:14:55;98846.91;;;18.96;75.52
73910;BME280;62245;48.070;7.874;2022-09-03T10:17:34;98840.72;;;18.91;75.76
73910;BME280;62245;48.070;7.874;2022-09-03T10:28:28;98848.00;;;18.18;80.33
73910;BME280;62245;48.070;7.874;2022-09-03T10:33:52;98846.84;;;17.98;82.43
73910;BME280;62245;48.070;7.874;2022-09-03T10:36:24;98850.56;;;17.87;82.94
73910;BME280;62245;48.070;7.874;2022-09-03T10:39:13;98849.97;;;17.80;83.63
73910;BME280;62245;48.070;7.874;2022-09-03T10:41:52;98847.59;;;17.89;84.18
73910;BME280;62245;48.070;7.874;2022-09-03T10:44:47;98853.56;;;17.96;83.73
73910;BME280;62245;48.070;7.874;2022-09-03T10:47:42;98842.53;;;17.97;83.03
73910;BME280;62245;48.070;7.874;2022-09-03T10:50:16;98840.44;;;18.15;82.91
73910;BME280;62245;48.070;7.874;2022-09-03T10:55:48;98841.00;;;18.22;82.23
73910;BME280;62245;48.070;7.874;2022-09-03T10:58:47;98835.72;;;18.52;82.02
73910;BME280;62245;48.070;7.874;2022-09-03T11:04:19;98827.47;;;18.84;81.28
73910;BME280;62245;48.070;7.874;2022-09-03T11:06:53;98834.47;;;18.95;81.82
73910;BME280;62245;48.070;7.874;2022-09-03T11:09:40;98832.59;;;19.06;81.61
73910;BME280;62245;48.070;7.874;2022-09-03T11:12:12;98838.81;;;19.21;82.27
73910;BME280;62245;48.070;7.874;2022-09-03T11:14:46;98838.31;;;19.35;80.83
73910;BME280;62245;48.070;7.874;2022-09-03T11:17:25;98841.84;;;19.50;80.15
73910;BME280;62245;48.070;7.874;2022-09-03T11:22:43;98837.75;;;19.68;78.51
73910;BME280;62245;48.070;7.874;2022-09-03T11:25:12;98845.06;;;19.78;78.89
73910;BME280;62245;48.070;7.874;2022-09-03T11:27:53;98846.66;;;19.84;77.97
73910;BME280;62245;48.070;7.874;2022-09-03T11:30:46;98836.91;;;19.88;77.19
73910;BME280;62245;48.070;7.874;2022-09-03T11:33:18;98832.56;;;19.92;75.22
73910;BME280;62245;48.070;7.874;2022-09-03T11:35:44;98825.47;;;20.11;76.65
73910;BME280;62245;48.070;7.874;2022-09-03T11:40:54;98816.72;;;20.40;72.66
73910;BME280;62245;48.070;7.874;2022-09-03T11:43:32;98819.13;;;20.85;74.11
73910;BME280;62245;48.070;7.874;2022-09-03T11:48:51;98823.03;;;21.18;69.39
73910;BME280;62245;48.070;7.874;2022-09-03T11:54:01;98823.19;;;20.88;70.11
73910;BME280;62245;48.070;7.874;2022-09-03T11:56:28;98808.88;;;20.77;69.85
73910;BME280;62245;48.070;7.874;2022-09-03T12:01:28;98819.72;;;20.82;68.69
73910;BME280;62245;48.070;7.874;2022-09-03T12:04:04;98818.91;;;20.77;68.50
73910;BME280;62245;48.070;7.874;2022-09-03T12:14:55;98825.31;;;21.64;62.97
73910;BME280;62245;48.070;7.874;2022-09-03T12:17:43;98808.06;;;21.78;62.48
73910;BME280;62245;48.070;7.874;2022-09-03T12:20:14;98798.69;;;21.66;61.43
73910;BME280;62245;48.070;7.874;2022-09-03T12:22:40;98792.44;;;21.89;61.88
73910;BME280;62245;48.070;7.874;2022-09-03T12:25:13;98793.00;;;22.15;61.10
73910;BME280;62245;48.070;7.874;2022-09-03T12:27:43;98788.19;;;22.07;58.95
73910;BME280;62245;48.070;7.874;2022-09-03T12:30:16;98783.25;;;22.14;60.04
73910;BME280;62245;48.070;7.874;2022-09-03T12:32:43;98769.19;;;22.07;57.63
73910;BME280;62245;48.070;7.874;2022-09-03T12:35:13;98773.91;;;22.20;58.35
73910;BME280;62245;48.070;7.874;2022-09-03T12:37:41;98781.31;;;22.14;57.34
73910;BME280;62245;48.070;7.874;2022-09-03T12:40:16;98786.41;;;22.21;58.53
73910;BME280;62245;48.070;7.874;2022-09-03T12:42:41;98785.53;;;22.26;57.05
73910;BME280;62245;48.070;7.874;2022-09-03T12:45:07;98777.16;;;21.98;56.23
73910;BME280;62245;48.070;7.874;2022-09-03T12:47:39;98778.31;;;22.16;56.39
73910;BME280;62245;48.070;7.874;2022-09-03T12:50:11;98771.81;;;22.36;56.18
73910;BME280;62245;48.070;7.874;2022-09-03T12:57:55;98774.16;;;22.42;56.58
73910;BME280;62245;48.070;7.874;2022-09-03T13:00:24;98783.28;;;22.51;57.18
73910;BME280;62245;48.070;7.874;2022-09-03T13:07:57;98792.53;;;22.08;57.42
73910;BME280;62245;48.070;7.874;2022-09-03T13:10:29;98791.59;;;22.17;58.74
73910;BME280;62245;48.070;7.874;2022-09-03T13:13:14;98796.75;;;22.19;58.17
73910;BME280;62245;48.070;7.874;2022-09-03T13:15:55;98783.34;;;22.28;58.47
73910;BME280;62245;48.070;7.874;2022-09-03T13:19:19;98785.03;;;22.42;58.45
73910;BME280;62245;48.070;7.874;2022-09-03T13:27:52;98774.81;;;22.53;59.25
73910;BME280;62245;48.070;7.874;2022-09-03T13:29:56;98771.66;;;22.83;57.67
73910;BME280;62245;48.070;7.874;2022-09-03T13:32:33;98772.06;;;23.09;56.10
73910;BME280;62245;48.070;7.874;2022-09-03T13:35:09;98762.13;;;23.18;56.13
73910;BME280;62245;48.070;7.874;2022-09-03T13:37:42;98762.81;;;23.43;54.90
73910;BME280;62245;48.070;7.874;2022-09-03T13:40:32;98758.81;;;23.54;56.33
73910;BME280;62245;48.070;7.874;2022-09-03T13:45:59;98755.63;;;23.47;53.79
73910;BME280;62245;48.070;7.874;2022-09-03T13:48:29;98752.06;;;23.51;55.35
73910;BME280;62245;48.070;7.874;2022-09-03T13:51:29;98759.25;;;23.75;52.69
73910;BME280;62245;48.070;7.874;2022-09-03T13:54:04;98750.97;;;23.66;51.96
73910;BME280;62245;48.070;7.874;2022-09-03T13:59:52;98757.81;;;24.04;51.56
73910;BME280;62245;48.070;7.874;2022-09-03T14:02:44;98752.88;;;23.79;51.68
73910;BME280;62245;48.070;7.874;2022-09-03T14:05:35;98750.34;;;23.55;52.11
73910;BME280;62245;48.070;7.874;2022-09-03T14:08:14;98742.91;;;23.61;52.05
73910;BME280;62245;48.070;7.874;2022-09-03T14:10:58;98744.19;;;23.50;53.17
73910;BME280;62245;48.070;7.874;2022-09-03T14:13:46;98743.13;;;23.46;53.92
73910;BME280;62245;48.070;7.874;2022-09-03T14:16:30;98733.31;;;23.50;54.23
73910;BME280;62245;48.070;7.874;2022-09-03T14:21:53;98730.78;;;23.67;53.78
73910;BME280;62245;48.070;7.874;2022-09-03T14:24:43;98736.75;;;23.69;53.70
73910;BME280;62245;48.070;7.874;2022-09-03T14:27:10;98745.91;;;23.59;53.65
73910;BME280;62245;48.070;7.874;2022-09-03T14:29:35;98736.44;;;23.57;54.13
73910;BME280;62245;48.070;7.874;2022-09-03T14:32:08;98741.47;;;23.50;54.08
73910;BME280;62245;48.070;7.874;2022-09-03T14:34:54;98739.41;;;23.42;54.82
73910;BME280;62245;48.070;7.874;2022-09-03T14:37:50;98742.13;;;23.42;55.26
73910;BME280;62245;48.070;7.874;2022-09-03T14:48:44;98726.59;;;23.42;56.09
73910;BME280;62245;48.070;7.874;2022-09-03T14:51:25;98719.13;;;23.34;54.68
73910;BME280;62245;48.070;7.874;2022-09-03T14:56:48;98715.16;;;23.59;55.05
73910;BME280;62245;48.070;7.874;2022-09-03T15:01:51;98710.91;;;23.53;56.06
73910;BME280;62245;48.070;7.874;2022-09-03T15:04:54;98716.78;;;23.60;57.04
73910;BME280;62245;48.070;7.874;2022-09-03T15:07:34;98710.81;;;23.58;56.13
73910;BME280;62245;48.070;7.874;2022-09-03T15:10:46;98702.22;;;23.64;57.02
73910;BME280;62245;48.070;7.874;2022-09-03T15:12:54;98719.50;;;23.74;56.01
73910;BME280;62245;48.070;7.874;2022-09-03T15:18:28;98721.59;;;24.04;55.31
73910;BME280;62245;48.070;7.874;2022-09-03T15:35:15;98725.09;;;24.18;54.60
73910;BME280;62245;48.070;7.874;2022-09-03T15:37:29;98714.78;;;24.15;54.65
73910;BME280;62245;48.070;7.874;2022-09-03T15:42:46;98715.28;;;24.31;51.50
73910;BME280;62245;48.070;7.874;2022-09-03T15:45:35;98722.28;;;24.23;52.30
73910;BME280;62245;48.070;7.874;2022-09-03T15:48:28;98727.34;;;24.30;51.76